MDT,Max TemperatureF,Mean TemperatureF,Min TemperatureF,Max Dew PointF,MeanDew PointF,Min DewpointF,Max Humidity, Mean Humidity, Min Humidity, Max Sea Level PressureIn, Mean Sea Level PressureIn, Min Sea Level PressureIn, Max VisibilityMiles, Mean VisibilityMiles, Min VisibilityMiles, Max Wind SpeedMPH, Mean Wind SpeedMPH, Max Gust SpeedMPH,PrecipitationIn, CloudCover, Events, WindDirDegrees
2013-8-1,86,73,60,55,51,46,77,50,25,30.22,30.05,29.89,10,10,9,21,10,30,0.00,1,Thunderstorm,264
2013-8-2,78,66,53,59,52,48,100,70,34,30.11,30.02,29.97,10,10,5,20,10,26,0.00,2,Thunderstorm,8
2013-8-3,77,65,53,59,54,48,94,68,50,30.19,30.13,30.07,10,10,10,13,6,18,0.00,0,,12
2013-8-4,78,66,55,61,53,48,88,60,44,30.16,30.12,30.06,10,10,10,16,8,21,0.00,0,,338
2013-8-5,89,72,55,57,47,43,72,46,20,30.12,30.06,29.94,10,10,10,22,6,36,0.00,0,,84
2013-8-6,78,68,57,52,44,39,67,45,27,30.14,30.08,30.03,10,10,7,18,6,23,0.00,1,,6
2013-8-7,82,68,55,48,43,37,59,40,26,30.14,30.08,30.01,10,10,10,17,5,23,0.00,0,,344
2013-8-8,77,67,57,48,44,39,63,43,32,30.16,30.11,30.07,10,10,10,12,6,17,0.00,1,,280
2013-8-9,71,63,55,55,51,48,77,64,46,30.23,30.19,30.15,10,10,10,15,6,18,0.01,2,,91
2013-8-10,82,66,51,52,46,36,82,49,21,30.19,30.16,30.10,10,10,9,17,6,23,0.00,1,Thunderstorm,203
2013-8-11,82,68,55,45,41,37,63,38,21,30.20,30.17,30.12,10,10,5,20,5,28,0.00,1,Thunderstorm,210
2013-8-12,84,68,53,48,42,34,58,37,19,30.21,30.16,30.13,10,10,6,14,5,22,0.00,0,Thunderstorm,158
2013-8-13,82,70,57,46,42,34,63,39,20,30.26,30.21,30.16,10,10,10,17,8,26,0.00,1,,237
2013-8-14,80,68,55,48,43,39,55,41,26,30.22,30.16,30.10,10,10,10,16,6,,0.00,0,Thunderstorm,344
2013-8-15,89,74,59,45,40,36,48,30,16,30.18,30.13,30.09,10,10,5,12,5,20,0.00,0,,90
2013-8-16,95,75,55,45,32,23,52,23,10,30.14,30.10,30.04,10,10,2,16,7,18,0.00,0,,167
2013-8-17,86,77,68,46,37,25,35,24,16,30.14,30.08,30.04,10,10,10,14,7,17,0.00,0,,328
2013-8-18,82,71,60,48,43,36,48,34,25,30.15,30.09,30.05,10,10,10,18,8,23,0.00,0,,7
2013-8-19,91,74,57,48,41,32,55,32,14,30.15,30.08,30.00,10,10,5,12,5,16,0.00,0,,263
2013-8-20,89,76,64,45,37,34,35,25,16,30.11,30.06,29.99,10,10,6,15,4,18,0.00,0,,354
2013-8-21,75,72,68,50,48,43,52,43,31,30.21,30.19,30.16,10,10,10,18,10,28,0.00,6,,270
2013-8-22,84,72,59,59,52,48,78,55,29,30.22,30.15,30.07,10,10,4,23,6,32,0.00,4,Thunderstorm,199
2013-8-23,89,76,64,54,48,37,64,41,16,30.07,30.00,29.93,10,10,2,28,11,39,0.00,3,,218
2013-8-24,82,72,62,54,48,45,72,46,28,30.11,30.03,29.99,10,10,4,29,7,48,0.09,4,Thunderstorm,247
2013-8-25,86,74,62,52,45,39,60,38,20,30.15,30.09,30.05,10,10,4,13,7,21,0.00,1,,218
2013-8-26,87,74,62,50,46,41,59,38,20,30.15,30.10,30.04,10,10,10,28,7,38,0.00,2,,228
2013-8-27,80,72,64,55,50,46,73,47,34,30.16,30.12,30.09,10,10,7,20,8,32,0.01,3,,256
2013-8-28,89,76,62,54,50,45,68,44,22,30.15,30.09,30.04,10,10,4,18,8,29,0.00,2,Thunderstorm,243
2013-8-29,89,73,57,59,49,43,77,51,22,30.25,30.20,30.15,10,10,4,16,4,37,0.06,1,Thunderstorm,186
2013-8-30,89,73,57,55,47,39,82,43,19,30.20,30.15,30.06,10,10,10,22,7,30,0.00,0,,233
2013-8-31,75,68,60,48,44,37,55,43,34,30.22,30.17,30.08,10,10,10,15,9,21,0.00,0,,359